• Join FlightAware (Why Join?)
  • Login
  • US Flag 
03:22AM EDT


 

Airport Tracker/Info


-or-


 

Live Flight TrackerFlight Track Log ✈ FLG3729 ✈ 19-Jun-2013 ✈ KALB - KDTW

Flight Track Log - Related Links

Times and Time Zones

All times are in EDT time to prevent confusion due to time zone crossing. See the FLG3729 flight status page for this flight to view local times or setup timezone preferences in your user account.

Time Position Orientation Groundspeed Altitude Reporting Facility
EDT Latitude Longitude Course Direction KTS MPH feet Rate Location/Type
06:01AM 42.7653 -73.8061 283° West 163 188 1,100  Level Boston Center
06:02AM 42.7944 -73.8153 347° North 179 206 2,500 2,160 Climbing Boston Center
06:03AM 42.8500 -73.8731 323° Northwest 224 258 5,100 2,700 Climbing Boston Center
06:04AM 42.9139 -73.9256 329° Northwest 242 278 8,500 2,700 Climbing Boston Center
06:05AM 42.9717 -73.9725 329° Northwest 264 304 10,600 1,560 Climbing Boston Center
06:06AM 42.8465 -74.4122 283° West  Level FlightAware Approximate
06:06AM 43.0200 -74.0786 302° West 295 339 11,700  Level Boston Center
06:07AM 43.0286 -74.2011 276° West 330 380 12,700 1,200 Climbing Boston Center
06:08AM 43.0408 -74.3547 276° West 369 425 14,200 1,500 Climbing Boston Center
06:09AM 43.0528 -74.4972 277° West 374 430 15,800 1,500 Climbing Boston Center
06:10AM 43.0628 -74.6369 276° West 374 430 17,200 1,440 Climbing Boston Center
06:11AM 43.0706 -74.7764 274° West 374 430 18,700 1,200 Climbing Boston Center
06:12AM 43.0789 -74.8733 277° West 374 430 19,600 1,200 Climbing Boston Center
06:13AM 43.0878 -75.0386 274° West 369 425 21,100 1,260 Climbing Boston Center
06:14AM 43.0992 -75.1786 276° West 369 425 22,200 1,080 Climbing Boston Center
06:15AM 43.1081 -75.3183 275° West 369 425 23,300 900 Climbing Boston Center
06:16AM 43.1169 -75.4639 275° West 379 436 24,100 720 Climbing Boston Center
06:17AM 43.1253 -75.6122 274° West 386 444 24,800 600 Climbing Boston Center
06:18AM 43.1356 -75.7608 275° West 396 456 25,400 600 Climbing Boston Center
06:19AM 43.1456 -75.9150 275° West 403 464 26,000 540 Climbing Boston Center
06:21AM 43.1569 -76.2625 273° West 398 458 27,300 540 Climbing Cleveland Center
06:22AM 43.1439 -76.4142 263° West 404 465 27,900 300 Climbing Cleveland Center
06:23AM 43.1306 -76.5717 263° West 409 471 28,000  Climbing Cleveland Center
06:24AM 43.1150 -76.7292 262° West 414 476 28,000  Level Cleveland Center
06:25AM 43.0994 -76.8922 263° West 420 483 28,000  Level Cleveland Center
06:26AM 43.0858 -77.0553 264° West 431 496 28,000  Level Cleveland Center
06:27AM 43.0700 -77.2181 262° West 436 502 28,000  Level Cleveland Center
06:28AM 43.0558 -77.3808 263° West 436 502 28,000  Level Cleveland Center
06:29AM 43.0414 -77.5436 263° West 431 496 28,000  Level Cleveland Center
06:30AM 43.0247 -77.7033 262° West 431 496 28,000  Level Cleveland Center
06:31AM 43.0097 -77.8689 263° West 431 496 28,000  Level Cleveland Center
06:32AM 42.9928 -78.0286 262° West 431 496 28,000  Level Cleveland Center
06:33AM 42.9772 -78.1908 263° West 431 496 28,000  Level Cleveland Center
06:34AM 42.9617 -78.3506 262° West 431 496 28,000  Level Cleveland Center
06:35AM 42.9439 -78.5100 261° West 431 496 28,000  Level Cleveland Center
06:36AM 42.9281 -78.6722 262° West 431 496 28,000  Level Cleveland Center
06:37AM 42.9056 -78.8286 259° West 431 496 28,000  Level Cleveland Center
06:38AM 42.8789 -79.0081 259° West 436 502 28,000  Level Cleveland Center
06:39AM 42.8558 -79.1672 259° West 436 502 28,000  Level Cleveland Center
06:40AM 42.8306 -79.3264 258° West 436 502 28,000  Level Cleveland Center
06:41AM 42.8114 -79.4850 261° West 430 495 28,000  Level Cleveland Center
06:42AM 42.7858 -79.6439 258° West 430 495 28,000  Level Cleveland Center
06:43AM 42.7619 -79.8056 259° West 430 495 28,000  Level Cleveland Center
06:44AM 42.7503 -79.9642 264° West 430 495 28,000  Level Cleveland Center
06:45AM 42.7406 -80.1139 265° West 430 495 28,000  Level Cleveland Center
06:46AM 42.7328 -80.2781 266° West 430 495 28,000  Level Cleveland Center
06:47AM 42.7289 -80.4361 268° West 430 495 28,000  Level Cleveland Center
06:48AM 42.7208 -80.5889 266° West 420 483 28,000 -240 Level Cleveland Center
06:49AM 42.7144 -80.7414 267° West 410 472 27,600 -780 Descending Cleveland Center
06:50AM 42.7058 -80.8883 265° West 401 461 26,500 -1,080 Descending Cleveland Center
06:51AM 42.6906 -81.0381 262° West 396 456 25,500 -1,020 Descending Cleveland Center
06:52AM 42.6733 -81.1903 261° West 396 456 24,500 -1,020 Descending Cleveland Center
06:53AM 42.6536 -81.3342 259° West 387 445 23,500 -1,020 Descending Cleveland Center
06:54AM 42.6381 -81.4750 262° West 392 451 22,500 -1,020 Descending Cleveland Center
06:55AM 42.6222 -81.6186 262° West 387 445 21,500 -1,020 Descending Cleveland Center
06:56AM 42.6064 -81.7594 261° West 387 445 20,500 -1,200 Descending Cleveland Center
06:57AM 42.5906 -81.8806 260° West 379 436 19,100 -1,380 Descending Cleveland Center
06:58AM 42.5722 -82.0156 260° West 373 429 17,800 -1,440 Descending Cleveland Center
06:59AM 42.5578 -82.1531 262° West 368 423 16,300 -1,500 Descending Cleveland Center
07:00AM 42.5414 -82.2825 260° West 368 423 14,800 -1,500 Descending Cleveland Center
07:01AM 42.5250 -82.4089 260° West 358 412 13,300 -1,440 Descending Cleveland Center
07:02AM 42.5083 -82.5378 260° West 353 406 12,000 -840 Descending Cleveland Center
07:03AM 42.4839 -82.6186 248° West 341 392 12,000  Level Cleveland Center
07:04AM 42.4422 -82.7356 244° Southwest 341 392 12,000  Level Cleveland Center
07:05AM 42.4003 -82.8550 245° Southwest 340 391 12,000  Level Cleveland Center
07:06AM 42.3561 -82.9772 244° Southwest 340 391 12,000  Level Cleveland Center
07:07AM 42.3139 -83.0992 245° Southwest 338 389 12,000 -60 Level Cleveland Center
07:08AM 42.3033 -83.1969 262° West 335 386 11,900 -600 Descending Cleveland Center
07:09AM 42.2903 -83.3144 261° West 336 387 11,000 -660 Descending Cleveland Center
07:09AM 42.2806 -83.3672 256° West 338 389 11,000 -120 Level Cleveland Center
07:10AM 42.2639 -83.4481 254° West 282 325 10,900 -900 Descending Cleveland Center
07:11AM 42.2086 -83.4958 213° Southwest 250 288 9,600 -1,620 Descending Cleveland Center
07:12AM 42.1489 -83.5436 211° Southwest 241 277 7,800 -1,800 Descending Cleveland Center
07:13AM 42.0936 -83.5886 211° Southwest 240 276 6,000 -1,320 Descending Cleveland Center
07:14AM 42.0464 -83.5556 153° Southeast 220 253 5,000 -900 Descending Cleveland Center